Time,TemperatureF,DewpointF,PressureIn,WindDirection,WindDirectionDegrees,WindSpeedMPH,WindSpeedGustMPH,Humidity,HourlyPrecipIn,Conditions,Clouds,dailyrainin,SolarRadiationWatts/m^2,SoftwareType,DateUTC
2013-05-03 00:03:00,42.0,40.0,-100.00,North,356,3.0,6.0,91,0.00,,,0.00,0.000000,,2013-05-03 04:03:00,
2013-05-03 00:12:00,45.0,40.0,-100.00,NNE,25,5.0,11.0,82,0.00,,,0.00,0.000000,,2013-05-03 04:12:00,
2013-05-03 00:32:00,45.0,40.0,-100.00,NNE,25,5.0,11.0,82,0.00,,,0.00,0.000000,,2013-05-03 04:32:00,
2013-05-03 00:43:00,45.0,40.0,-100.00,NNE,25,5.0,11.0,82,0.00,,,0.00,0.000000,,2013-05-03 04:43:00,
2013-05-03 00:53:00,45.0,40.0,-100.00,NNE,25,5.0,11.0,82,0.00,,,0.00,0.000000,,2013-05-03 04:53:00,
2013-05-03 01:03:00,45.0,40.0,-100.00,NNE,25,5.0,11.0,82,0.00,,,0.00,0.000000,,2013-05-03 05:03:00,
2013-05-03 01:12:00,45.0,40.0,-100.00,ENE,77,4.0,10.0,84,0.00,,,0.00,0.000000,,2013-05-03 05:12:00,
2013-05-03 01:32:00,45.0,40.0,-100.00,ENE,77,4.0,10.0,84,0.00,,,0.00,0.000000,,2013-05-03 05:32:00,
2013-05-03 01:42:00,45.0,40.0,-100.00,ENE,77,4.0,10.0,84,0.00,,,0.00,0.000000,,2013-05-03 05:42:00,
2013-05-03 01:52:00,45.0,40.0,-100.00,ENE,77,4.0,10.0,84,0.00,,,0.00,0.000000,,2013-05-03 05:52:00,
2013-05-03 02:02:00,45.0,40.0,-100.00,ENE,77,4.0,10.0,84,0.00,,,0.00,0.000000,,2013-05-03 06:02:00,
2013-05-03 02:32:00,44.0,42.0,-100.00,ENE,70,3.0,7.0,93,0.00,,,-99.99,0.000000,,2013-05-03 06:32:00,
2013-05-03 02:42:00,44.0,42.0,-100.00,ENE,70,3.0,7.0,93,0.00,,,-99.99,0.000000,,2013-05-03 06:42:00,
2013-05-03 02:52:00,44.0,42.0,-100.00,ENE,70,3.0,7.0,93,0.00,,,-99.99,0.000000,,2013-05-03 06:52:00,
2013-05-03 03:02:00,44.0,42.0,-100.00,ENE,70,3.0,7.0,93,0.00,,,-99.99,0.000000,,2013-05-03 07:02:00,
2013-05-03 03:11:00,44.0,42.0,-100.00,ENE,70,3.0,7.0,93,0.00,,,-99.99,0.000000,,2013-05-03 07:11:00,
2013-05-03 03:12:00,42.0,40.0,-100.00,NE,55,2.0,6.0,91,0.00,,,-99.99,0.000000,,2013-05-03 07:12:00,
2013-05-03 03:32:00,42.0,40.0,-100.00,NE,55,2.0,6.0,91,0.00,,,-99.99,0.000000,,2013-05-03 07:32:00,
2013-05-03 03:42:00,42.0,40.0,-100.00,NE,55,2.0,6.0,91,0.00,,,-99.99,0.000000,,2013-05-03 07:42:00,
2013-05-03 03:52:00,42.0,40.0,-100.00,NE,55,2.0,6.0,91,0.00,,,-99.99,0.000000,,2013-05-03 07:52:00,
2013-05-03 04:02:00,42.0,40.0,-100.00,NE,55,2.0,6.0,91,0.00,,,-99.99,0.000000,,2013-05-03 08:02:00,
2013-05-03 04:12:00,41.0,39.0,-100.00,North,1,2.0,5.0,92,0.00,,,0.00,0.000000,,2013-05-03 08:12:00,
2013-05-03 04:42:00,41.0,39.0,-100.00,North,1,2.0,5.0,92,0.00,,,0.00,0.000000,,2013-05-03 08:42:00,
2013-05-03 04:53:00,41.0,39.0,-100.00,North,1,2.0,5.0,92,0.00,,,0.00,0.000000,,2013-05-03 08:53:00,
2013-05-03 05:01:00,41.0,39.0,-100.00,North,1,2.0,5.0,92,0.00,,,0.00,0.000000,,2013-05-03 09:01:00,
2013-05-03 05:12:00,42.0,40.0,-100.00,North,354,4.0,7.0,92,0.00,,,0.00,0.000000,,2013-05-03 09:12:00,
2013-05-03 05:42:00,42.0,40.0,-100.00,North,354,4.0,7.0,92,0.00,,,0.00,0.000000,,2013-05-03 09:42:00,
2013-05-03 05:53:00,42.0,40.0,-100.00,North,354,4.0,7.0,92,0.00,,,0.00,0.000000,,2013-05-03 09:53:00,
2013-05-03 06:03:00,42.0,40.0,-100.00,North,354,4.0,7.0,92,0.00,,,0.00,0.000000,,2013-05-03 10:03:00,
2013-05-03 06:32:00,44.0,40.0,-100.00,North,6,6.0,11.0,86,0.00,,,0.00,21.000000,,2013-05-03 10:32:00,
2013-05-03 06:42:00,44.0,40.0,-100.00,North,6,6.0,11.0,86,0.00,,,0.00,21.000000,,2013-05-03 10:42:00,
2013-05-03 06:52:00,44.0,40.0,-100.00,North,6,6.0,11.0,86,0.00,,,0.00,21.000000,,2013-05-03 10:52:00,
2013-05-03 07:02:00,44.0,40.0,-100.00,North,6,6.0,11.0,86,0.00,,,0.00,21.000000,,2013-05-03 11:02:00,
2013-05-03 07:11:00,44.0,40.0,-100.00,North,6,6.0,11.0,86,0.00,,,0.00,21.000000,,2013-05-03 11:11:00,
2013-05-03 07:12:00,45.0,40.0,-100.00,NNE,19,8.0,14.0,83,0.00,,,-99.99,139.000000,,2013-05-03 11:12:00,
2013-05-03 07:32:00,45.0,40.0,-100.00,NNE,19,8.0,14.0,83,0.00,,,-99.99,139.000000,,2013-05-03 11:32:00,
2013-05-03 07:42:00,45.0,40.0,-100.00,NNE,19,8.0,14.0,83,0.00,,,-99.99,139.000000,,2013-05-03 11:42:00,
2013-05-03 07:52:00,45.0,40.0,-100.00,NNE,19,8.0,14.0,83,0.00,,,-99.99,139.000000,,2013-05-03 11:52:00,
2013-05-03 08:02:00,45.0,40.0,-100.00,NNE,19,8.0,14.0,83,0.00,,,-99.99,139.000000,,2013-05-03 12:02:00,
2013-05-03 09:42:00,49.0,42.0,-100.00,NNE,14,6.0,15.0,78,-99.99,,,0.00,418.000000,,2013-05-03 13:42:00,
2013-05-03 09:52:00,49.0,42.0,-100.00,NNE,14,6.0,15.0,78,-99.99,,,0.00,418.000000,,2013-05-03 13:52:00,
2013-05-03 10:02:00,49.0,42.0,-100.00,NNE,14,6.0,15.0,78,-99.99,,,0.00,418.000000,,2013-05-03 14:02:00,
2013-05-03 10:11:00,49.0,42.0,-100.00,NNE,14,6.0,15.0,78,-99.99,,,0.00,418.000000,,2013-05-03 14:11:00,
2013-05-03 10:42:00,49.0,42.0,-100.00,North,3,7.0,16.0,77,0.00,,,0.00,531.000000,,2013-05-03 14:42:00,
2013-05-03 10:52:00,49.0,42.0,-100.00,North,3,7.0,16.0,77,0.00,,,0.00,531.000000,,2013-05-03 14:52:00,
2013-05-03 11:01:00,49.0,42.0,-100.00,North,3,7.0,16.0,77,0.00,,,0.00,531.000000,,2013-05-03 15:01:00,
2013-05-03 11:11:00,49.0,42.0,-100.00,North,3,7.0,16.0,77,0.00,,,0.00,531.000000,,2013-05-03 15:11:00,
2013-05-03 11:12:00,50.0,42.0,-100.00,North,9,7.0,17.0,74,0.00,,,0.00,608.000000,,2013-05-03 15:12:00,
2013-05-03 11:43:00,50.0,42.0,-100.00,North,9,7.0,17.0,74,0.00,,,0.00,608.000000,,2013-05-03 15:43:00,
2013-05-03 11:53:00,50.0,42.0,-100.00,North,9,7.0,17.0,74,0.00,,,0.00,608.000000,,2013-05-03 15:53:00,
2013-05-03 12:03:00,50.0,42.0,-100.00,North,9,7.0,17.0,74,0.00,,,0.00,608.000000,,2013-05-03 16:03:00,
2013-05-03 12:12:00,52.0,43.0,-100.00,NNE,18,9.0,16.0,72,0.00,,,0.00,799.000000,,2013-05-03 16:12:00,
2013-05-03 12:33:00,52.0,43.0,-100.00,NNE,18,9.0,16.0,72,0.00,,,0.00,799.000000,,2013-05-03 16:33:00,
2013-05-03 12:42:00,52.0,43.0,-100.00,NNE,18,9.0,16.0,72,0.00,,,0.00,799.000000,,2013-05-03 16:42:00,
2013-05-03 12:52:00,52.0,43.0,-100.00,NNE,18,9.0,16.0,72,0.00,,,0.00,799.000000,,2013-05-03 16:52:00,
2013-05-03 13:02:00,52.0,43.0,-100.00,NNE,18,9.0,16.0,72,0.00,,,0.00,799.000000,,2013-05-03 17:02:00,
2013-05-03 13:12:00,52.0,43.0,-100.00,North,357,8.0,17.0,72,0.00,,,0.00,826.000000,,2013-05-03 17:12:00,
2013-05-03 13:42:00,52.0,43.0,-100.00,North,357,8.0,17.0,72,0.00,,,0.00,826.000000,,2013-05-03 17:42:00,
2013-05-03 13:52:00,52.0,43.0,-100.00,North,357,8.0,17.0,72,0.00,,,0.00,826.000000,,2013-05-03 17:52:00,
2013-05-03 14:01:00,52.0,43.0,-100.00,North,357,8.0,17.0,72,0.00,,,0.00,826.000000,,2013-05-03 18:01:00,
2013-05-03 14:32:00,51.0,43.0,-100.00,North,357,8.0,17.0,73,0.00,,,0.00,782.000000,,2013-05-03 18:32:00,
2013-05-03 14:42:00,51.0,43.0,-100.00,North,357,8.0,17.0,73,0.00,,,0.00,782.000000,,2013-05-03 18:42:00,
2013-05-03 14:52:00,51.0,43.0,-100.00,North,357,8.0,17.0,73,0.00,,,0.00,782.000000,,2013-05-03 18:52:00,
2013-05-03 15:01:00,51.0,43.0,-100.00,North,357,8.0,17.0,73,0.00,,,0.00,782.000000,,2013-05-03 19:01:00,
2013-05-03 15:11:00,51.0,43.0,-100.00,North,357,8.0,17.0,73,0.00,,,0.00,782.000000,,2013-05-03 19:11:00,
2013-05-03 15:12:00,51.0,43.0,-100.00,North,359,8.0,15.0,74,0.00,,,0.00,850.000000,,2013-05-03 19:12:00,
2013-05-03 15:32:00,51.0,43.0,-100.00,North,359,8.0,15.0,74,0.00,,,0.00,850.000000,,2013-05-03 19:32:00,
2013-05-03 15:42:00,51.0,43.0,-100.00,North,359,8.0,15.0,74,0.00,,,0.00,850.000000,,2013-05-03 19:42:00,
2013-05-03 15:52:00,51.0,43.0,-100.00,North,359,8.0,15.0,74,0.00,,,0.00,850.000000,,2013-05-03 19:52:00,
2013-05-03 16:02:00,51.0,43.0,-100.00,North,359,8.0,15.0,74,0.00,,,0.00,850.000000,,2013-05-03 20:02:00,
2013-05-03 16:32:00,49.0,41.0,-100.00,North,8,8.0,16.0,74,0.00,,,0.00,573.000000,,2013-05-03 20:32:00,
2013-05-03 16:42:00,49.0,41.0,-100.00,North,8,8.0,16.0,74,0.00,,,0.00,573.000000,,2013-05-03 20:42:00,
2013-05-03 16:52:00,49.0,41.0,-100.00,North,8,8.0,16.0,74,0.00,,,0.00,573.000000,,2013-05-03 20:52:00,
2013-05-03 17:02:00,49.0,41.0,-100.00,North,8,8.0,16.0,74,0.00,,,0.00,573.000000,,2013-05-03 21:02:00,
2013-05-03 17:11:00,49.0,41.0,-100.00,North,8,8.0,16.0,74,0.00,,,0.00,573.000000,,2013-05-03 21:11:00,
2013-05-03 17:12:00,47.0,41.0,-100.00,NNE,21,7.0,14.0,79,0.00,,,0.00,332.000000,,2013-05-03 21:12:00,
2013-05-03 17:33:00,47.0,41.0,-100.00,NNE,21,7.0,14.0,79,0.00,,,0.00,332.000000,,2013-05-03 21:33:00,
2013-05-03 17:43:00,47.0,41.0,-100.00,NNE,21,7.0,14.0,79,0.00,,,0.00,332.000000,,2013-05-03 21:43:00,
2013-05-03 17:53:00,47.0,41.0,-100.00,NNE,21,7.0,14.0,79,0.00,,,0.00,332.000000,,2013-05-03 21:53:00,
2013-05-03 18:03:00,47.0,41.0,-100.00,NNE,21,7.0,14.0,79,0.00,,,0.00,332.000000,,2013-05-03 22:03:00,
2013-05-03 21:32:00,41.0,39.0,-100.00,North,5,2.0,4.0,94,-99.99,,,0.00,0.000000,,2013-05-04 01:32:00,
2013-05-03 21:42:00,41.0,39.0,-100.00,North,5,2.0,4.0,94,-99.99,,,0.00,0.000000,,2013-05-04 01:42:00,
2013-05-03 21:52:00,41.0,39.0,-100.00,North,5,2.0,4.0,94,-99.99,,,0.00,0.000000,,2013-05-04 01:52:00,
2013-05-03 22:02:00,41.0,39.0,-100.00,North,5,2.0,4.0,94,-99.99,,,0.00,0.000000,,2013-05-04 02:02:00,
2013-05-03 22:11:00,41.0,39.0,-100.00,North,5,2.0,4.0,94,-99.99,,,0.00,0.000000,,2013-05-04 02:11:00,
2013-05-03 22:32:00,40.0,39.0,-100.00,NW,316,2.0,3.0,95,0.00,,,0.00,0.000000,,2013-05-04 02:32:00,
2013-05-03 22:42:00,40.0,39.0,-100.00,NW,316,2.0,3.0,95,0.00,,,0.00,0.000000,,2013-05-04 02:42:00,
2013-05-03 22:52:00,40.0,39.0,-100.00,NW,316,2.0,3.0,95,0.00,,,0.00,0.000000,,2013-05-04 02:52:00,
2013-05-03 23:02:00,40.0,39.0,-100.00,NW,316,2.0,3.0,95,0.00,,,0.00,0.000000,,2013-05-04 03:02:00,
2013-05-03 23:11:00,40.0,39.0,-100.00,NW,316,2.0,3.0,95,0.00,,,0.00,0.000000,,2013-05-04 03:11:00,
2013-05-03 23:12:00,41.0,40.0,-100.00,North,349,4.0,6.0,96,0.00,,,0.00,0.000000,,2013-05-04 03:12:00,
2013-05-03 23:43:00,41.0,40.0,-100.00,North,349,4.0,6.0,96,0.00,,,0.00,0.000000,,2013-05-04 03:43:00,
2013-05-03 23:53:00,41.0,40.0,-100.00,North,349,4.0,6.0,96,0.00,,,0.00,0.000000,,2013-05-04 03:53:00,